Time;durP1;ratioP1;P1;durP2;ratioP2;P2;SDS_P1;SDS_P2;PMS_P1;PMS_P2;Temp;Humidity;BMP_temperature;BMP_pressure;BME280_temperature;BME280_humidity;BME280_pressure;Samples;Min_cycle;Max_cycle;Signal;HPM_P1;HPM_P2
2023/08/03 00:01:06;;;;;;;6.57;1.98;;;16.20;99.90;;;;;;4979530;28;20034;-69
2023/08/03 00:03:31;;;;;;;7.85;1.80;;;16.20;99.90;;;;;;4979031;28;20104;-69
2023/08/03 00:05:57;;;;;;;9.52;2.30;;;16.30;99.90;;;;;;4995712;28;20457;-68
2023/08/03 00:08:23;;;;;;;7.40;2.08;;;16.30;99.90;;;;;;4979115;28;20045;-69
2023/08/03 00:10:49;;;;;;;8.05;1.85;;;16.20;99.90;;;;;;4979447;28;20049;-69
2023/08/03 00:13:14;;;;;;;8.35;2.10;;;16.30;99.90;;;;;;4979101;28;20053;-69
2023/08/03 00:15:40;;;;;;;6.65;2.03;;;16.30;99.90;;;;;;4995591;28;20095;-70
2023/08/03 00:18:06;;;;;;;7.82;2.10;;;16.20;99.90;;;;;;4982576;28;20073;-70
2023/08/03 00:20:32;;;;;;;7.28;1.80;;;16.20;99.90;;;;;;4982830;28;20091;-69
2023/08/03 00:23:04;;;;;;;7.80;1.75;;;16.30;99.90;;;;;;4950702;28;20042;-69
2023/08/03 00:25:31;;;;;;;6.22;1.60;;;16.40;99.90;;;;;;4982515;28;20038;-69
2023/08/03 00:27:57;;;;;;;6.35;1.80;;;16.40;99.90;;;;;;4998581;28;20046;-69
2023/08/03 00:30:22;;;;;;;6.80;1.83;;;16.40;99.90;;;;;;4998653;28;20045;-69
2023/08/03 00:32:49;;;;;;;8.32;2.00;;;16.30;99.90;;;;;;4982630;28;20429;-69
2023/08/03 00:35:15;;;;;;;8.82;1.90;;;16.30;99.90;;;;;;4982565;28;20050;-69
2023/08/03 00:37:41;;;;;;;9.70;1.92;;;16.30;99.90;;;;;;4982255;28;20564;-69
2023/08/03 00:40:08;;;;;;;8.68;2.10;;;16.30;99.90;;;;;;4998494;28;20041;-69
2023/08/03 00:42:34;;;;;;;7.32;1.80;;;16.30;99.90;;;;;;4982181;28;20050;-69
2023/08/03 00:44:59;;;;;;;6.95;1.85;;;16.30;99.90;;;;;;4998332;28;20465;-69
2023/08/03 00:47:25;;;;;;;8.60;2.22;;;16.30;99.90;;;;;;4998342;28;20044;-68
2023/08/03 00:49:51;;;;;;;8.02;2.10;;;16.30;99.90;;;;;;4965970;28;20125;-70
2023/08/03 00:52:17;;;;;;;8.63;2.30;;;16.20;99.90;;;;;;4982046;28;20096;-70
2023/08/03 00:54:45;;;;;;;4.95;1.50;;;16.20;99.90;;;;;;4966047;28;20436;-70
2023/08/03 00:57:11;;;;;;;6.55;1.50;;;16.30;99.90;;;;;;4982361;28;20440;-70
2023/08/03 00:59:37;;;;;;;5.10;1.50;;;16.30;99.90;;;;;;4998151;28;20045;-70
2023/08/03 01:02:04;;;;;;;5.53;1.58;;;16.30;99.90;;;;;;4965843;28;20041;-71
2023/08/03 01:04:31;;;;;;;6.93;2.00;;;16.20;99.90;;;;;;4950553;28;20034;-71
2023/08/03 01:07:00;;;;;;;6.40;1.70;;;16.10;99.90;;;;;;4949952;28;20034;-70
2023/08/03 01:09:26;;;;;;;5.78;1.40;;;16.10;99.90;;;;;;4981980;28;20077;-70
2023/08/03 01:11:51;;;;;;;4.70;1.40;;;16.10;99.90;;;;;;4949770;28;20155;-69
2023/08/03 01:14:17;;;;;;;5.38;1.80;;;16.10;99.90;;;;;;4981751;28;20045;-70
2023/08/03 01:16:43;;;;;;;6.07;1.92;;;16.00;99.90;;;;;;4981567;28;20544;-71
2023/08/03 01:19:10;;;;;;;8.85;1.92;;;16.00;99.90;;;;;;4981536;28;20132;-70
2023/08/03 01:21:37;;;;;;;6.45;1.92;;;16.00;99.90;;;;;;4997679;28;20046;-69
2023/08/03 01:24:03;;;;;;;6.97;2.40;;;16.00;99.90;;;;;;4965928;28;20129;-69
2023/08/03 01:26:32;;;;;;;7.22;2.00;;;16.00;99.90;;;;;;4981627;28;20136;-70
2023/08/03 01:29:01;;;;;;;7.55;1.90;;;16.00;99.90;;;;;;4996816;28;20124;-71
2023/08/03 01:31:30;;;;;;;6.97;2.72;;;16.00;99.90;;;;;;4981533;28;20132;-70
2023/08/03 01:33:57;;;;;;;5.88;2.00;;;16.00;99.90;;;;;;4981523;28;20403;-70
2023/08/03 01:36:23;;;;;;;7.30;2.17;;;16.00;99.90;;;;;;4981266;28;20041;-70
2023/08/03 01:39:24;;;;;;;6.68;2.40;;;16.00;99.90;;;;;;4981776;28;20041;-71
2023/08/03 01:41:50;;;;;;;7.35;2.25;;;15.90;99.90;;;;;;4981276;28;20437;-70
2023/08/03 01:44:27;;;;;;;5.50;2.00;;;16.00;99.90;;;;;;4997586;28;20041;-70
2023/08/03 01:46:55;;;;;;;6.50;2.40;;;16.00;99.90;;;;;;4981551;28;20513;-70
2023/08/03 01:49:22;;;;;;;5.72;2.40;;;16.00;99.90;;;;;;4980929;28;20045;-70
2023/08/03 01:51:49;;;;;;;7.22;2.40;;;16.00;99.90;;;;;;4997057;28;20073;-71
2023/08/03 01:54:18;;;;;;;7.78;2.50;;;16.00;99.90;;;;;;4997182;28;20472;-69
2023/08/03 01:56:44;;;;;;;8.43;3.08;;;16.00;99.90;;;;;;4997023;28;20134;-70
2023/08/03 01:59:11;;;;;;;7.90;2.70;;;16.00;99.90;;;;;;4981216;28;20386;-70
2023/08/03 02:01:40;;;;;;;6.07;2.10;;;15.90;99.90;;;;;;4980884;28;20046;-69
2023/08/03 02:04:06;;;;;;;7.10;2.80;;;15.90;99.90;;;;;;4997023;28;20092;-69
2023/08/03 02:06:33;;;;;;;5.65;2.50;;;16.00;99.90;;;;;;4997987;28;20038;-73
2023/08/03 02:09:04;;;;;;;6.88;2.75;;;15.90;99.90;;;;;;4981895;28;20080;-71
2023/08/03 02:11:30;;;;;;;5.55;2.47;;;16.00;99.90;;;;;;4997385;28;20045;-71
2023/08/03 02:14:05;;;;;;;6.15;2.55;;;16.00;99.90;;;;;;4965348;28;20042;-72
2023/08/03 02:16:32;;;;;;;5.57;2.30;;;16.00;99.90;;;;;;4981290;28;20041;-71
2023/08/03 02:18:58;;;;;;;4.65;2.30;;;16.00;99.90;;;;;;4965390;28;20065;-72
2023/08/03 02:21:23;;;;;;;10.23;2.85;;;16.00;99.90;;;;;;4997303;28;20046;-71
2023/08/03 02:23:53;;;;;;;6.53;2.83;;;16.00;99.90;;;;;;4997255;28;20077;-70
2023/08/03 02:26:19;;;;;;;5.95;2.80;;;16.00;99.90;;;;;;4965637;28;20042;-73
2023/08/03 02:28:49;;;;;;;5.57;2.60;;;16.00;99.90;;;;;;4964731;28;20184;-71
2023/08/03 02:31:15;;;;;;;5.55;2.50;;;16.00;99.90;;;;;;4965137;28;20034;-71
2023/08/03 02:33:42;;;;;;;6.30;2.40;;;16.00;99.90;;;;;;4980893;28;20123;-71
2023/08/03 02:36:10;;;;;;;6.78;2.63;;;16.00;99.90;;;;;;4997191;28;20124;-71
2023/08/03 02:38:49;;;;;;;7.47;2.47;;;16.00;99.90;;;;;;4964966;28;20037;-71
2023/08/03 02:41:19;;;;;;;5.85;2.50;;;16.00;99.90;;;;;;4981438;28;20045;-71
2023/08/03 02:43:45;;;;;;;6.90;2.75;;;16.00;99.90;;;;;;4965237;28;20131;-71
2023/08/03 02:46:12;;;;;;;6.18;3.00;;;16.00;99.90;;;;;;4980795;28;20438;-71
2023/08/03 02:48:46;;;;;;;6.53;3.13;;;16.10;99.90;;;;;;4980437;28;20497;-70
2023/08/03 02:51:15;;;;;;;7.07;3.30;;;16.00;99.90;;;;;;4997470;28;20041;-70
2023/08/03 02:53:47;;;;;;;4.47;2.58;;;16.10;99.90;;;;;;4965632;28;20101;-70
2023/08/03 02:56:22;;;;;;;7.32;4.05;;;16.10;99.90;;;;;;4964967;28;20042;-72
2023/08/03 02:58:48;;;;;;;6.32;3.83;;;16.10;99.90;;;;;;4965927;28;20124;-71
2023/08/03 03:01:14;;;;;;;7.85;4.35;;;16.10;99.90;;;;;;4980600;28;20136;-72
2023/08/03 03:03:40;;;;;;;8.15;4.22;;;16.10;99.90;;;;;;4980400;28;20056;-71
2023/08/03 03:06:05;;;;;;;8.63;4.88;;;16.10;99.90;;;;;;4996584;28;20041;-71
2023/08/03 03:08:31;;;;;;;9.20;4.60;;;16.10;99.90;;;;;;4996509;28;20132;-71
2023/08/03 03:10:57;;;;;;;9.32;5.00;;;16.10;99.90;;;;;;4980507;28;20045;-71
2023/08/03 03:13:23;;;;;;;7.85;5.03;;;16.10;99.90;;;;;;4964275;28;20120;-70
2023/08/03 03:15:50;;;;;;;10.07;5.25;;;16.10;99.90;;;;;;4980165;28;20083;-70
2023/08/03 03:18:16;;;;;;;9.75;5.00;;;16.20;99.90;;;;;;4997017;28;20042;-71
2023/08/03 03:20:42;;;;;;;9.32;5.47;;;16.20;99.90;;;;;;4996869;28;20046;-71
2023/08/03 03:23:11;;;;;;;10.10;5.85;;;16.20;99.90;;;;;;4980617;28;20060;-71
2023/08/03 03:25:39;;;;;;;9.35;5.40;;;16.30;99.90;;;;;;4948674;28;20037;-70
2023/08/03 03:28:05;;;;;;;10.43;6.25;;;16.30;99.90;;;;;;4980264;28;20096;-69
2023/08/03 03:30:31;;;;;;;9.43;5.97;;;16.30;99.90;;;;;;4980415;28;20045;-70
2023/08/03 03:32:58;;;;;;;11.27;7.28;;;16.30;99.90;;;;;;4996273;28;20064;-71
2023/08/03 03:35:30;;;;;;;11.05;6.80;;;16.30;99.90;;;;;;4948759;28;20038;-72
2023/08/03 03:37:58;;;;;;;13.10;6.93;;;16.20;99.90;;;;;;4980678;28;20201;-72
2023/08/03 03:40:28;;;;;;;10.95;6.60;;;16.30;99.90;;;;;;4979841;28;20069;-72
2023/08/03 03:42:53;;;;;;;10.80;6.50;;;16.30;99.90;;;;;;4980037;28;20045;-70
2023/08/03 03:45:19;;;;;;;12.88;5.80;;;16.30;99.90;;;;;;4996100;28;20046;-69
2023/08/03 03:47:45;;;;;;;10.90;5.97;;;16.30;99.90;;;;;;4996254;28;20131;-71
2023/08/03 03:50:11;;;;;;;13.15;6.65;;;16.30;99.90;;;;;;4996744;28;20037;-72
2023/08/03 03:52:37;;;;;;;11.30;6.28;;;16.30;99.90;;;;;;4983218;28;20092;-71
2023/08/03 03:55:03;;;;;;;12.57;5.85;;;16.30;99.90;;;;;;4983580;28;20045;-70
2023/08/03 03:57:28;;;;;;;10.85;5.85;;;16.30;99.90;;;;;;4999522;28;20041;-71
2023/08/03 03:59:54;;;;;;;11.98;5.88;;;16.40;99.90;;;;;;4967116;28;20046;-71
2023/08/03 04:02:20;;;;;;;11.82;5.45;;;16.40;99.90;;;;;;4967403;28;20137;-71
2023/08/03 04:04:46;;;;;;;12.90;5.50;;;16.30;99.90;;;;;;4951511;28;20482;-71
2023/08/03 04:07:12;;;;;;;12.18;5.38;;;16.40;99.90;;;;;;4999468;28;20045;-71
2023/08/03 04:09:38;;;;;;;13.55;5.68;;;16.40;99.90;;;;;;4999849;28;20038;-71
2023/08/03 04:12:07;;;;;;;15.70;6.35;;;16.40;99.90;;;;;;4983298;28;20056;-72
2023/08/03 04:14:34;;;;;;;16.13;6.30;;;16.30;99.90;;;;;;4967318;28;20045;-72
2023/08/03 04:17:03;;;;;;;13.38;5.85;;;16.40;99.90;;;;;;4967472;28;20037;-71
2023/08/03 04:19:33;;;;;;;15.85;6.90;;;16.30;99.90;;;;;;4983186;28;20129;-70
2023/08/03 04:21:58;;;;;;;17.67;6.30;;;16.40;99.90;;;;;;4951047;28;20112;-68
2023/08/03 04:24:24;;;;;;;12.35;5.60;;;16.30;99.90;;;;;;4982860;28;20045;-72
2023/08/03 04:26:50;;;;;;;15.15;5.78;;;16.40;99.90;;;;;;4999188;28;20038;-69
2023/08/03 04:29:15;;;;;;;16.70;6.07;;;16.30;99.90;;;;;;4998499;28;20044;-69
2023/08/03 04:35:23;;;;;;;17.73;4.90;;;16.40;99.90;;;;;;4996630;28;20410;-69
2023/08/03 04:37:49;;;;;;;15.20;4.90;;;16.30;99.90;;;;;;4979262;28;20046;-68
2023/08/03 04:40:15;;;;;;;18.02;5.43;;;16.40;99.90;;;;;;4962726;28;20405;-69
2023/08/03 04:42:44;;;;;;;16.65;5.05;;;16.40;99.90;;;;;;4946796;28;20042;-68
2023/08/03 04:45:13;;;;;;;14.80;5.60;;;16.40;99.90;;;;;;4995421;28;20410;-69
2023/08/03 04:47:39;;;;;;;18.23;5.15;;;16.40;99.90;;;;;;4962974;28;20402;-69
2023/08/03 04:50:12;;;;;;;12.55;4.53;;;16.40;99.90;;;;;;4978717;28;20042;-68
2023/08/03 04:52:38;;;;;;;18.10;5.38;;;16.40;99.90;;;;;;4963968;28;20046;-69
2023/08/03 04:55:04;;;;;;;15.80;5.00;;;16.40;99.90;;;;;;4963025;28;20053;-68
2023/08/03 04:57:30;;;;;;;14.32;4.57;;;16.40;99.90;;;;;;4995012;28;20073;-69
2023/08/03 04:59:56;;;;;;;12.38;4.70;;;16.40;99.90;;;;;;4946623;28;20050;-68
2023/08/03 05:02:40;;;;;;;14.32;4.85;;;16.40;99.90;;;;;;4994626;28;20594;-69
2023/08/03 05:05:06;;;;;;;15.05;5.15;;;16.50;99.90;;;;;;4994658;28;20073;-68
2023/08/03 05:07:32;;;;;;;13.00;4.97;;;16.50;99.90;;;;;;4994683;28;20078;-69
2023/08/03 05:09:58;;;;;;;17.38;5.15;;;16.40;99.90;;;;;;4994625;28;20136;-70
2023/08/03 05:12:24;;;;;;;11.95;4.28;;;16.50;99.90;;;;;;4946970;28;20050;-69
2023/08/03 05:14:50;;;;;;;12.90;5.05;;;16.50;99.90;;;;;;4962534;28;20046;-68
2023/08/03 05:17:18;;;;;;;16.60;5.10;;;16.50;99.90;;;;;;4978717;28;20085;-68
2023/08/03 05:19:44;;;;;;;12.32;5.13;;;16.60;99.90;;;;;;4946408;28;20042;-68
2023/08/03 05:22:10;;;;;;;14.48;5.35;;;16.60;99.90;;;;;;4946159;28;20047;-69
2023/08/03 05:24:36;;;;;;;10.10;5.00;;;16.70;99.90;;;;;;4994330;28;20045;-68
2023/08/03 05:27:20;;;;;;;18.27;6.03;;;16.70;99.90;;;;;;4978212;28;20042;-68
2023/08/03 05:29:46;;;;;;;14.85;6.13;;;16.80;99.90;;;;;;4980778;28;20120;-69
2023/08/03 05:32:11;;;;;;;15.90;5.95;;;16.80;99.90;;;;;;4961885;28;20046;-69
2023/08/03 05:34:37;;;;;;;16.33;5.57;;;17.00;99.90;;;;;;4997045;28;20410;-68
2023/08/03 05:37:04;;;;;;;11.18;5.55;;;17.10;99.90;;;;;;4997832;28;20438;-69
2023/08/03 05:39:29;;;;;;;11.95;4.85;;;17.10;99.90;;;;;;4997471;28;20120;-68
2023/08/03 05:41:55;;;;;;;14.60;5.30;;;17.10;99.90;;;;;;4981158;28;20121;-69
2023/08/03 05:44:21;;;;;;;11.32;5.70;;;17.20;99.90;;;;;;4981281;28;20041;-68
2023/08/03 05:46:47;;;;;;;11.77;5.75;;;17.20;99.90;;;;;;4997413;28;20042;-68
2023/08/03 05:49:13;;;;;;;13.40;5.70;;;17.20;99.90;;;;;;4981240;28;20038;-68
2023/08/03 05:51:48;;;;;;;14.13;5.72;;;17.20;99.90;;;;;;4981210;28;20125;-68
2023/08/03 05:54:18;;;;;;;14.23;5.70;;;17.30;99.90;;;;;;4997313;28;20038;-69
2023/08/03 05:56:45;;;;;;;14.82;5.57;;;17.30;99.90;;;;;;4997314;28;20470;-67
2023/08/03 05:59:22;;;;;;;12.65;5.22;;;17.30;99.90;;;;;;4996299;28;20042;-68
2023/08/03 06:01:50;;;;;;;13.48;5.78;;;17.40;99.90;;;;;;4996911;28;20046;-68
2023/08/03 06:04:17;;;;;;;14.02;6.07;;;17.40;99.90;;;;;;4997187;28;20042;-67
2023/08/03 06:06:46;;;;;;;12.27;5.63;;;17.50;99.90;;;;;;4996894;28;20042;-68
2023/08/03 06:09:16;;;;;;;11.38;4.95;;;17.50;99.90;;;;;;4996790;28;20045;-68
2023/08/03 06:11:42;;;;;;;11.18;5.25;;;17.60;99.90;;;;;;4964670;28;20486;-69
2023/08/03 06:14:12;;;;;;;13.07;5.40;;;17.60;99.90;;;;;;5012570;28;20099;-69
2023/08/03 06:16:38;;;;;;;13.07;5.45;;;17.70;99.90;;;;;;4996641;28;20052;-68
2023/08/03 06:19:05;;;;;;;11.00;4.75;;;17.70;99.90;;;;;;4996665;28;20512;-69
2023/08/03 06:21:31;;;;;;;12.75;5.05;;;17.80;99.90;;;;;;4996524;28;20046;-69
2023/08/03 06:23:58;;;;;;;11.40;5.13;;;17.80;99.90;;;;;;4996675;28;20046;-69
2023/08/03 06:26:25;;;;;;;13.15;5.35;;;17.80;99.90;;;;;;4996843;28;20045;-68
2023/08/03 06:28:53;;;;;;;11.75;5.10;;;17.80;99.90;;;;;;4996480;28;20042;-69
2023/08/03 06:31:35;;;;;;;12.35;5.30;;;17.80;99.90;;;;;;4996486;28;20048;-69
2023/08/03 06:34:02;;;;;;;14.80;5.20;;;17.90;99.90;;;;;;4995962;28;20060;-67
2023/08/03 06:36:28;;;;;;;10.73;5.50;;;17.90;99.90;;;;;;4996264;28;20088;-69
2023/08/03 06:38:58;;;;;;;13.98;5.28;;;17.90;99.90;;;;;;4996247;28;20049;-69
2023/08/03 06:41:25;;;;;;;11.20;4.93;;;17.90;99.90;;;;;;4980220;28;20557;-69
2023/08/03 06:43:53;;;;;;;10.43;4.70;;;18.00;99.90;;;;;;4980390;28;20449;-68
2023/08/03 06:46:19;;;;;;;10.93;4.40;;;18.00;99.90;;;;;;4996633;28;20042;-72
2023/08/03 06:48:45;;;;;;;11.02;4.05;;;18.00;99.90;;;;;;4964076;28;20084;-71
2023/08/03 06:51:11;;;;;;;10.73;4.00;;;18.00;99.90;;;;;;4980102;28;20037;-71
2023/08/03 06:53:37;;;;;;;11.60;3.85;;;18.10;99.90;;;;;;4979935;28;20048;-71
2023/08/03 06:56:09;;;;;;;9.55;3.50;;;18.20;99.90;;;;;;4979884;28;20049;-69
2023/08/03 06:58:35;;;;;;;;;;;18.30;99.90;;;;;;4965262;28;20046;-71
2023/08/03 07:01:06;;;;;;;9.13;3.15;;;18.40;99.90;;;;;;4996326;28;19917;-71
2023/08/03 07:03:32;;;;;;;10.98;3.80;;;18.40;99.90;;;;;;4995697;28;20037;-70
2023/08/03 07:06:17;;;;;;;11.30;3.83;;;18.50;99.90;;;;;;4979999;28;20117;-71
2023/08/03 07:08:46;;;;;;;9.18;3.90;;;18.40;99.90;;;;;;4979577;28;20042;-71
2023/08/03 07:11:12;;;;;;;10.95;3.92;;;18.40;99.90;;;;;;4996240;28;20490;-71
2023/08/03 07:13:41;;;;;;;10.93;3.63;;;18.50;99.90;;;;;;4980478;28;20041;-72
2023/08/03 07:16:10;;;;;;;11.18;3.17;;;18.60;99.90;;;;;;4979876;28;20050;-72
2023/08/03 07:18:36;;;;;;;10.10;3.17;;;18.80;99.90;;;;;;4964345;28;20041;-71
2023/08/03 07:21:05;;;;;;;9.65;2.90;;;19.00;99.90;;;;;;4979710;28;20042;-68
2023/08/03 07:23:32;;;;;;;9.40;2.67;;;19.00;99.90;;;;;;4995860;28;20038;-70
2023/08/03 07:25:58;;;;;;;8.23;2.45;;;19.30;99.90;;;;;;4980813;28;20034;-70
2023/08/03 07:28:24;;;;;;;8.68;2.90;;;19.70;99.90;;;;;;5000008;28;20124;-69
2023/08/03 07:30:50;;;;;;;8.07;2.35;;;19.70;99.90;;;;;;4967557;28;20069;-68
2023/08/03 07:33:16;;;;;;;9.68;2.40;;;19.70;99.90;;;;;;4983573;28;20493;-69
2023/08/03 07:35:41;;;;;;;7.38;2.05;;;19.70;99.90;;;;;;4999506;28;20057;-67
2023/08/03 07:38:07;;;;;;;8.73;2.05;;;19.60;99.90;;;;;;4983515;28;20042;-69
2023/08/03 07:40:37;;;;;;;7.78;2.00;;;19.40;99.90;;;;;;4983344;28;20564;-69
2023/08/03 07:43:09;;;;;;;7.88;1.70;;;19.30;99.90;;;;;;4999497;28;20045;-69
2023/08/03 07:45:38;;;;;;;8.05;1.92;;;19.20;99.90;;;;;;4999688;28;20065;-69
2023/08/03 07:48:04;;;;;;;6.07;1.65;;;19.10;99.90;;;;;;4983600;28;20121;-69
2023/08/03 07:50:33;;;;;;;6.68;1.77;;;19.30;99.90;;;;;;4999484;28;20459;-69
2023/08/03 07:52:59;;;;;;;5.85;1.55;;;19.70;99.90;;;;;;4968082;28;20501;-70
2023/08/03 07:55:37;;;;;;;6.72;1.60;;;20.00;99.90;;;;;;4983200;28;20042;-68
2023/08/03 07:58:03;;;;;;;6.10;1.50;;;20.40;99.90;;;;;;4953127;28;20045;-69
2023/08/03 08:00:28;;;;;;;5.80;1.60;;;20.70;99.90;;;;;;4966675;28;20053;-69
2023/08/03 08:02:54;;;;;;;5.93;1.55;;;20.90;99.90;;;;;;5015489;28;20077;-68
2023/08/03 08:05:23;;;;;;;7.20;1.33;;;21.30;99.90;;;;;;4999285;28;20508;-69
2023/08/03 08:07:49;;;;;;;6.60;1.40;;;21.30;99.90;;;;;;4999288;28;20120;-69
2023/08/03 08:10:18;;;;;;;6.00;1.27;;;21.20;99.90;;;;;;4966884;28;20125;-68
2023/08/03 08:12:44;;;;;;;5.90;1.38;;;21.10;99.90;;;;;;4983585;28;20042;-69
2023/08/03 08:15:11;;;;;;;3.72;1.00;;;21.20;99.90;;;;;;4950919;28;20034;-68
2023/08/03 08:17:37;;;;;;;5.03;1.30;;;21.10;99.90;;;;;;4983122;28;20041;-68
2023/08/03 08:20:02;;;;;;;5.10;1.20;;;21.10;99.90;;;;;;4999172;28;20057;-69
2023/08/03 08:22:28;;;;;;;5.68;1.17;;;21.00;99.90;;;;;;4998800;28;20046;-69
2023/08/03 08:24:54;;;;;;;4.72;1.20;;;20.90;99.90;;;;;;5015112;28;20401;-68
2023/08/03 08:27:20;;;;;;;4.68;1.00;;;20.90;99.90;;;;;;4998911;28;20042;-69
2023/08/03 08:29:46;;;;;;;5.50;1.20;;;21.10;99.90;;;;;;4982575;28;20045;-69
2023/08/03 08:32:13;;;;;;;5.18;1.10;;;21.40;99.90;;;;;;4966687;28;20038;-69
2023/08/03 08:34:39;;;;;;;3.60;0.93;;;21.70;99.90;;;;;;4998643;28;20061;-69
2023/08/03 08:37:05;;;;;;;3.55;0.90;;;22.00;99.90;;;;;;4998551;28;20042;-71
2023/08/03 08:39:34;;;;;;;5.63;1.10;;;22.30;99.90;;;;;;4956503;28;20046;-72
2023/08/03 08:42:10;;;;;;;5.88;1.20;;;22.10;99.90;;;;;;4960727;28;20077;-73
2023/08/03 08:44:42;;;;;;;5.00;1.20;;;22.40;99.90;;;;;;4960737;28;20042;-71
2023/08/03 08:47:08;;;;;;;4.25;1.02;;;22.50;99.90;;;;;;4960676;28;20038;-72
2023/08/03 08:49:34;;;;;;;3.75;1.00;;;22.20;99.90;;;;;;4945215;28;20109;-72
2023/08/03 08:52:02;;;;;;;3.00;0.90;;;22.20;99.90;;;;;;4961513;28;20473;-73
2023/08/03 08:54:32;;;;;;;4.40;1.00;;;22.30;99.90;;;;;;4961458;28;20165;-74
2023/08/03 08:56:58;;;;;;;3.22;1.02;;;22.30;99.90;;;;;;4945507;28;20058;-73
2023/08/03 08:59:26;;;;;;;4.90;1.00;;;22.60;99.90;;;;;;4929598;28;20407;-73
2023/08/03 09:01:55;;;;;;;4.40;1.00;;;22.70;99.90;;;;;;4946495;28;20046;-74
2023/08/03 09:04:33;;;;;;;6.00;1.20;;;22.90;99.90;;;;;;4929828;28;20443;-73
2023/08/03 09:06:59;;;;;;;4.30;0.90;;;23.20;99.90;;;;;;4961228;28;20049;-69
2023/08/03 09:09:35;;;;;;;5.60;1.20;;;23.40;99.90;;;;;;4945638;28;20039;-69
2023/08/03 09:12:01;;;;;;;4.45;1.10;;;23.20;99.90;;;;;;4960387;28;20074;-68
2023/08/03 09:14:27;;;;;;;4.47;1.05;;;23.00;99.90;;;;;;4943956;28;20089;-69
2023/08/03 09:16:53;;;;;;;5.00;1.20;;;22.90;99.90;;;;;;4945767;28;20057;-73
2023/08/03 09:19:36;;;;;;;4.05;0.90;;;22.90;99.90;;;;;;4947671;28;20050;-74
2023/08/03 09:22:02;;;;;;;3.58;0.90;;;23.10;99.90;;;;;;4962793;28;20051;-71
2023/08/03 09:24:28;;;;;;;4.15;1.00;;;23.30;99.90;;;;;;4965724;28;20509;-72
2023/08/03 09:26:53;;;;;;;4.55;1.08;;;23.50;99.90;;;;;;4965051;28;20484;-72
2023/08/03 09:29:19;;;;;;;4.97;1.10;;;23.60;99.90;;;;;;4966761;28;20046;-73
2023/08/03 09:31:46;;;;;;;4.32;1.02;;;23.60;99.90;;;;;;4961618;28;20553;-72
2023/08/03 09:34:12;;;;;;;4.90;1.10;;;23.40;99.90;;;;;;4946719;28;20054;-72
2023/08/03 09:36:47;;;;;;;4.90;1.10;;;23.60;99.90;;;;;;4945239;28;20038;-72
2023/08/03 09:39:18;;;;;;;2.97;0.80;;;23.80;99.90;;;;;;4961904;28;20043;-73
2023/08/03 09:41:45;;;;;;;4.70;1.00;;;23.70;99.90;;;;;;4946563;28;20054;-73
2023/08/03 09:44:16;;;;;;;5.85;1.10;;;23.60;99.90;;;;;;4961988;28;20074;-73
2023/08/03 09:46:46;;;;;;;3.92;1.00;;;23.60;99.90;;;;;;4963594;28;20097;-72
2023/08/03 09:49:12;;;;;;;5.53;1.40;;;23.80;99.90;;;;;;4962981;28;20042;-73
2023/08/03 09:51:43;;;;;;;5.45;1.30;;;23.90;99.90;;;;;;4932324;28;20086;-74
2023/08/03 09:54:25;;;;;;;3.93;0.93;;;24.00;99.90;;;;;;4963474;28;20049;-74
2023/08/03 09:56:54;;;;;;;4.25;1.00;;;24.10;99.90;;;;;;4959648;28;20086;-73
2023/08/03 09:59:36;;;;;;;3.83;0.93;;;24.10;99.90;;;;;;4959137;28;20046;-74
2023/08/03 10:02:07;;;;;;;5.57;1.10;;;24.00;99.90;;;;;;4958733;28;20046;-73
2023/08/03 10:04:39;;;;;;;7.07;1.10;;;24.10;99.90;;;;;;4958775;28;20049;-74
2023/08/03 10:07:08;;;;;;;5.47;1.20;;;24.30;99.90;;;;;;4959041;28;20283;-73
2023/08/03 10:09:43;;;;;;;4.72;1.20;;;24.30;99.90;;;;;;4958956;28;20038;-73
2023/08/03 10:12:34;;;;;;;4.20;1.10;;;24.40;99.90;;;;;;4958924;28;20054;-72
2023/08/03 10:15:02;;;;;;;3.75;1.10;;;24.20;99.90;;;;;;4959185;28;20047;-72
2023/08/03 10:17:29;;;;;;;4.10;1.00;;;23.90;99.90;;;;;;4946552;28;20180;-73
2023/08/03 10:19:59;;;;;;;4.55;1.10;;;23.60;99.90;;;;;;4948758;28;20066;-71
2023/08/03 10:22:25;;;;;;;4.22;0.98;;;23.40;99.90;;;;;;4955337;28;20055;-70
2023/08/03 10:25:14;;;;;;;3.85;0.88;;;23.20;99.90;;;;;;4971380;28;20111;-69
2023/08/03 10:28:15;;;;;;;5.55;1.13;;;23.00;99.90;;;;;;4970668;28;20086;-71
2023/08/03 10:31:07;;;;;;;5.85;1.17;;;23.30;99.90;;;;;;4970799;28;20046;-70
2023/08/03 10:33:53;;;;;;;5.30;1.10;;;23.50;99.90;;;;;;4963225;28;20066;-71
2023/08/03 10:36:29;;;;;;;5.35;1.20;;;23.50;99.90;;;;;;4954158;28;20541;-72
2023/08/03 10:38:55;;;;;;;4.45;1.00;;;23.60;99.90;;;;;;4943594;28;20411;-67
2023/08/03 10:41:25;;;;;;;5.97;1.10;;;23.70;99.90;;;;;;4942047;28;20046;-67
2023/08/03 10:44:14;;;;;;;3.85;1.02;;;23.80;99.90;;;;;;4957549;28;20488;-66
2023/08/03 10:46:43;;;;;;;3.72;0.90;;;23.90;99.90;;;;;;4950201;28;20087;-66
2023/08/03 10:49:27;;;;;;;6.30;1.20;;;23.70;99.90;;;;;;4941480;28;20253;-67
2023/08/03 10:52:15;;;;;;;4.45;1.10;;;23.70;99.90;;;;;;4957704;28;20552;-67
2023/08/03 10:54:41;;;;;;;5.68;1.30;;;23.50;99.90;;;;;;4941487;28;20039;-68
2023/08/03 10:57:08;;;;;;;5.68;1.10;;;23.30;99.90;;;;;;4958140;28;20081;-72
2023/08/03 10:59:43;;;;;;;5.75;1.00;;;23.40;99.90;;;;;;4942049;28;20038;-72
2023/08/03 11:02:25;;;;;;;5.45;1.10;;;23.60;99.90;;;;;;4942022;28;20150;-73
2023/08/03 11:04:52;;;;;;;6.38;1.20;;;23.70;99.90;;;;;;4942172;28;20045;-70
2023/08/03 11:07:30;;;;;;;5.20;1.10;;;23.70;99.90;;;;;;4966290;28;20049;-72
2023/08/03 11:09:56;;;;;;;4.15;1.00;;;23.60;99.90;;;;;;4958585;28;20045;-71
2023/08/03 11:12:25;;;;;;;4.68;1.30;;;23.50;99.90;;;;;;4959330;28;20042;-71
2023/08/03 11:14:54;;;;;;;5.55;1.23;;;23.40;99.90;;;;;;4958844;28;20126;-70
2023/08/03 11:17:27;;;;;;;6.10;1.20;;;23.20;99.90;;;;;;4958197;28;20104;-67
2023/08/03 11:19:57;;;;;;;5.78;1.25;;;23.10;99.90;;;;;;4957395;28;20590;-66
2023/08/03 11:22:25;;;;;;;5.70;1.33;;;23.20;99.90;;;;;;4957026;28;20096;-66
2023/08/03 11:24:54;;;;;;;7.63;1.88;;;23.40;99.90;;;;;;4957272;28;20074;-66
2023/08/03 11:27:21;;;;;;;6.22;1.20;;;23.30;99.90;;;;;;4957350;28;20155;-66
2023/08/03 11:29:48;;;;;;;6.30;1.38;;;23.20;99.90;;;;;;4957310;28;20506;-67
2023/08/03 11:32:28;;;;;;;7.05;1.30;;;23.20;99.90;;;;;;4956995;28;20051;-66
2023/08/03 11:35:06;;;;;;;5.37;1.40;;;23.30;99.90;;;;;;4956982;28;20129;-65
2023/08/03 11:37:34;;;;;;;5.60;1.30;;;23.50;99.90;;;;;;4941154;28;20392;-66
2023/08/03 11:40:03;;;;;;;6.65;1.40;;;23.50;99.90;;;;;;4957192;28;20055;-66
2023/08/03 11:42:30;;;;;;;6.82;1.30;;;23.30;99.90;;;;;;4956950;28;20126;-65
2023/08/03 11:44:56;;;;;;;5.25;1.38;;;23.00;99.90;;;;;;4957298;28;20146;-66
2023/08/03 11:47:22;;;;;;;6.82;1.50;;;22.90;99.90;;;;;;4941235;28;20122;-66
2023/08/03 11:49:56;;;;;;;5.28;1.40;;;23.10;99.90;;;;;;4957031;28;20038;-66
2023/08/03 11:52:22;;;;;;;6.45;1.40;;;23.50;99.90;;;;;;4941712;28;20506;-65
2023/08/03 11:54:49;;;;;;;7.40;2.00;;;23.80;99.90;;;;;;4956896;28;20618;-66
2023/08/03 12:00:15;;;;;;;6.97;1.30;;;23.90;99.90;;;;;;4956858;28;20043;-67
2023/08/03 12:02:51;;;;;;;5.68;1.23;;;24.00;99.90;;;;;;4940826;28;20038;-66
2023/08/03 12:05:17;;;;;;;5.78;1.40;;;24.20;99.90;;;;;;4940690;28;20043;-65
2023/08/03 12:07:43;;;;;;;5.93;1.23;;;24.40;99.90;;;;;;4940660;28;20194;-65
2023/08/03 12:10:13;;;;;;;4.50;1.27;;;24.70;99.90;;;;;;4956776;28;20039;-67
2023/08/03 12:12:45;;;;;;;3.05;0.98;;;24.80;99.90;;;;;;4958888;28;20530;-66
2023/08/03 12:15:11;;;;;;;5.28;1.20;;;25.00;99.90;;;;;;4944841;28;20054;-68
2023/08/03 12:17:37;;;;;;;3.70;0.90;;;25.00;99.90;;;;;;4944257;28;20038;-67
2023/08/03 12:20:04;;;;;;;5.45;1.10;;;24.90;99.90;;;;;;4960136;28;20050;-67
2023/08/03 12:22:32;;;;;;;3.92;0.95;;;24.70;99.90;;;;;;4959973;28;20057;-69
2023/08/03 12:24:58;;;;;;;4.47;1.10;;;24.50;99.90;;;;;;4960342;28;20584;-70
2023/08/03 12:27:24;;;;;;;5.38;1.00;;;24.30;99.90;;;;;;4944327;28;20035;-70
2023/08/03 12:29:50;;;;;;;3.47;1.00;;;24.20;99.90;;;;;;4944022;28;20039;-69
2023/08/03 12:32:15;;;;;;;5.30;1.30;;;24.20;99.90;;;;;;4943932;28;20450;-69
2023/08/03 12:34:41;;;;;;;6.28;1.23;;;23.90;99.90;;;;;;4959845;28;20125;-70
2023/08/03 12:37:08;;;;;;;4.28;1.00;;;23.80;99.90;;;;;;4944081;28;20097;-68
2023/08/03 12:39:34;;;;;;;4.50;1.00;;;23.90;99.90;;;;;;4944102;28;20047;-67
2023/08/03 12:41:59;;;;;;;3.83;1.20;;;23.70;99.90;;;;;;4959918;28;20407;-67
2023/08/03 12:44:26;;;;;;;6.78;1.40;;;23.60;99.90;;;;;;4943958;28;20042;-67
2023/08/03 12:46:52;;;;;;;5.03;1.30;;;23.70;99.90;;;;;;4943973;28;20046;-67
2023/08/03 12:49:19;;;;;;;4.82;1.20;;;23.90;99.90;;;;;;4959698;28;20402;-68
2023/08/03 12:51:46;;;;;;;5.20;1.10;;;24.10;99.90;;;;;;4960215;28;20039;-68
2023/08/03 12:54:12;;;;;;;7.18;1.25;;;24.40;99.90;;;;;;4943933;28;20093;-67
2023/08/03 12:56:38;;;;;;;6.57;1.40;;;24.70;99.90;;;;;;4959596;28;20038;-68